createdAt,value
2023-04-18T00:00:19.246Z,1.85
2023-04-18T00:03:21.943Z,2.22
2023-04-18T00:06:23.703Z,2.92
2023-04-18T00:09:25.686Z,2.20
2023-04-18T00:12:27.955Z,2.08
2023-04-18T00:15:30.278Z,2.75
2023-04-18T00:18:31.861Z,2.40
2023-04-18T00:21:33.514Z,2.53
2023-04-18T00:24:35.118Z,2.83
2023-04-18T00:27:41.136Z,2.10
2023-04-18T00:30:42.811Z,2.50
2023-04-18T00:33:44.532Z,2.53
2023-04-18T00:36:46.111Z,2.83
2023-04-18T00:39:47.715Z,2.80
2023-04-18T00:42:49.302Z,2.03
2023-04-18T00:45:50.934Z,3.08
2023-04-18T00:48:52.725Z,3.17
2023-04-18T00:51:56.736Z,2.25
2023-04-18T00:54:58.338Z,2.60
2023-04-18T00:58:00.284Z,2.88
2023-04-18T01:01:01.899Z,2.75
2023-04-18T01:04:03.763Z,2.35
2023-04-18T01:07:06.053Z,2.58
2023-04-18T01:10:10.325Z,2.13
2023-04-18T01:13:14.227Z,2.10
2023-04-18T01:16:15.804Z,2.35
2023-04-18T01:19:17.520Z,2.70
2023-04-18T01:22:20.296Z,2.42
2023-04-18T01:25:21.978Z,2.97
2023-04-18T01:28:23.633Z,2.28
2023-04-18T01:31:25.250Z,2.72
2023-04-18T01:34:26.848Z,1.98
2023-04-18T01:37:28.423Z,2.40
2023-04-18T01:40:30.327Z,2.53
2023-04-18T01:43:31.930Z,2.38
2023-04-18T01:46:34.275Z,2.47
2023-04-18T01:49:35.882Z,1.92
2023-04-18T01:52:37.453Z,2.47
2023-04-18T01:55:38.981Z,2.40
2023-04-18T01:58:41.701Z,2.05
2023-04-18T02:01:43.366Z,2.20
2023-04-18T02:04:44.981Z,2.65
2023-04-18T02:07:47.729Z,2.53
2023-04-18T02:10:49.301Z,2.88
2023-04-18T02:13:50.874Z,2.45
2023-04-18T02:16:52.456Z,2.20
2023-04-18T02:19:54.040Z,2.70
2023-04-18T02:22:55.681Z,2.45
2023-04-18T02:25:57.250Z,2.08
2023-04-18T02:28:58.868Z,2.13
2023-04-18T02:32:00.741Z,2.47
2023-04-18T02:35:02.340Z,2.50
2023-04-18T02:38:03.874Z,2.40
2023-04-18T02:41:05.530Z,2.65
2023-04-18T02:44:08.661Z,2.88
2023-04-18T02:47:10.394Z,2.15
2023-04-18T02:50:12.001Z,3.17
2023-04-18T02:53:13.603Z,2.17
2023-04-18T02:56:17.157Z,1.92
2023-04-18T02:59:18.753Z,2.88
2023-04-18T03:02:21.002Z,2.92
2023-04-18T03:05:22.804Z,2.95
2023-04-18T03:08:24.509Z,2.72
2023-04-18T03:11:26.053Z,2.40
2023-04-18T03:14:27.632Z,2.95
2023-04-18T03:17:29.334Z,2.40
2023-04-18T03:20:30.896Z,3.40
2023-04-18T03:23:32.586Z,2.83
2023-04-18T03:26:34.165Z,3.25
2023-04-18T03:29:35.797Z,2.47
2023-04-18T03:32:38.607Z,2.72
2023-04-18T03:35:40.633Z,3.03
2023-04-18T03:38:42.383Z,3.08
2023-04-18T03:41:43.924Z,2.78
2023-04-18T03:44:45.474Z,3.15
2023-04-18T03:47:47.075Z,2.85
2023-04-18T03:50:48.690Z,3.50
2023-04-18T03:53:50.399Z,2.22
2023-04-18T03:56:52.440Z,2.47
2023-04-18T03:59:54.177Z,2.65
2023-04-18T04:02:56.151Z,3.47
2023-04-18T04:05:58.037Z,2.28
2023-04-18T04:08:59.615Z,3.25
2023-04-18T04:12:02.258Z,2.67
2023-04-18T04:15:04.091Z,4.05
2023-04-18T04:18:06.527Z,3.50
2023-04-18T04:21:08.160Z,2.97
2023-04-18T04:24:09.751Z,2.83
2023-04-18T04:27:12.605Z,2.80
2023-04-18T04:30:14.347Z,2.58
2023-04-18T04:33:19.709Z,2.08
2023-04-18T04:36:23.119Z,3.00
2023-04-18T04:39:24.786Z,3.25
2023-04-18T04:42:26.899Z,2.90
2023-04-18T04:45:28.611Z,3.38
2023-04-18T04:48:30.242Z,3.30
2023-04-18T04:51:31.980Z,2.70
2023-04-18T04:54:33.530Z,3.38
2023-04-18T04:57:35.828Z,3.53
2023-04-18T05:00:37.435Z,3.88
2023-04-18T05:03:39.138Z,3.13
2023-04-18T05:06:40.952Z,2.65
2023-04-18T05:09:42.536Z,3.22
2023-04-18T05:12:44.121Z,3.28
2023-04-18T05:15:45.846Z,4.28
2023-04-18T05:18:47.438Z,2.95
2023-04-18T05:21:49.015Z,2.67
2023-04-18T05:24:50.609Z,3.35
2023-04-18T05:27:52.285Z,3.20
2023-04-18T05:31:01.100Z,2.95
2023-04-18T05:34:02.806Z,3.13
2023-04-18T05:37:04.412Z,3.30
2023-04-18T05:40:06.898Z,3.03
2023-04-18T05:43:08.455Z,3.08
2023-04-18T05:46:10.185Z,2.97
2023-04-18T05:49:12.133Z,2.45
2023-04-18T05:52:13.731Z,2.70
2023-04-18T05:55:15.406Z,3.17
2023-04-18T05:58:17.022Z,3.30
2023-04-18T06:01:18.823Z,2.28
2023-04-18T06:04:21.280Z,2.78
2023-04-18T06:07:25.230Z,2.58
2023-04-18T06:10:26.872Z,2.22
2023-04-18T06:13:28.523Z,2.10
2023-04-18T06:16:30.313Z,2.25
2023-04-18T06:19:31.893Z,2.75
2023-04-18T06:22:36.398Z,2.13
2023-04-18T06:25:38.049Z,1.90
2023-04-18T06:28:39.715Z,2.17
2023-04-18T06:31:42.210Z,1.90
2023-04-18T06:34:44.856Z,2.33
2023-04-18T06:37:46.570Z,2.17
2023-04-18T06:40:48.296Z,2.05
2023-04-18T06:44:14.511Z,1.95
2023-04-18T06:47:11.542Z,1.83
2023-04-18T06:50:13.698Z,2.25
2023-04-18T06:53:15.263Z,2.85
2023-04-18T06:56:16.866Z,2.88
2023-04-18T06:59:19.313Z,2.78
2023-04-18T07:02:20.927Z,3.03
2023-04-18T07:05:22.677Z,2.70
2023-04-18T07:08:24.235Z,4.70
2023-04-18T07:11:26.117Z,4.68
2023-04-18T07:14:28.467Z,5.28
2023-04-18T07:17:30.113Z,5.43
2023-04-18T07:20:31.715Z,5.07
2023-04-18T07:23:33.339Z,4.43
2023-04-18T07:26:34.998Z,3.83
2023-04-18T07:29:36.582Z,2.60
2023-04-18T07:32:38.285Z,2.38
2023-04-18T07:35:40.516Z,2.58
2023-04-18T07:38:42.597Z,2.15
2023-04-18T07:41:44.177Z,1.60
2023-04-18T07:44:45.890Z,1.27
2023-04-18T07:47:47.568Z,0.63
2023-04-18T07:50:49.441Z,0.90
2023-04-18T07:53:51.252Z,1.13
2023-04-18T07:56:52.951Z,1.40
2023-04-18T07:59:54.491Z,1.10
2023-04-18T08:02:56.576Z,1.42
2023-04-18T08:05:58.246Z,1.02
2023-04-18T08:09:03.154Z,1.52
2023-04-18T08:12:05.162Z,1.52
2023-04-18T08:15:07.462Z,1.95
2023-04-18T08:18:09.053Z,1.77
2023-04-18T08:21:10.721Z,1.52
2023-04-18T08:24:12.340Z,1.63
2023-04-18T08:27:14.052Z,2.45
2023-04-18T08:30:15.670Z,2.03
2023-04-18T08:33:18.430Z,2.40
2023-04-18T08:36:21.259Z,2.53
2023-04-18T08:39:24.849Z,2.95
2023-04-18T08:42:27.638Z,2.85
2023-04-18T08:45:29.591Z,2.83
2023-04-18T08:48:31.487Z,3.00
2023-04-18T08:51:41.653Z,2.40
2023-04-18T08:54:45.272Z,2.10
2023-04-18T08:57:47.575Z,1.02
2023-04-18T09:00:55.817Z,1.02
2023-04-18T09:03:58.298Z,0.45
2023-04-18T09:07:00.550Z,0.57
2023-04-18T09:10:02.142Z,0.52
2023-04-18T09:13:04.453Z,0.80
2023-04-18T09:16:06.564Z,0.65
2023-04-18T09:19:18.161Z,0.85
2023-04-18T09:22:20.854Z,0.88
2023-04-18T09:25:34.933Z,0.70
2023-04-18T09:28:37.529Z,0.43
2023-04-18T09:32:02.207Z,0.90
2023-04-18T09:38:07.926Z,0.55
2023-04-18T09:41:11.433Z,0.73
2023-04-18T09:44:15.312Z,0.77
2023-04-18T09:47:17.312Z,0.50
2023-04-18T09:50:20.856Z,1.35
2023-04-18T09:53:24.365Z,0.88
2023-04-18T09:56:29.666Z,0.65
2023-04-18T09:59:47.778Z,1.13
2023-04-18T10:02:59.789Z,0.88
2023-04-18T10:06:01.743Z,0.75
2023-04-18T10:09:04.369Z,0.70
2023-04-18T10:12:06.390Z,0.63
2023-04-18T10:15:11.009Z,0.70
2023-04-18T10:18:18.847Z,0.70
2023-04-18T10:21:21.745Z,0.70
2023-04-18T10:24:45.311Z,0.75
2023-04-18T10:27:49.590Z,0.63
2023-04-18T10:30:53.802Z,1.17
2023-04-18T10:37:06.241Z,0.60
2023-04-18T10:40:10.342Z,0.40
2023-04-18T10:43:13.326Z,0.90
2023-04-18T10:46:30.377Z,0.80
2023-04-18T10:49:33.436Z,0.32
2023-04-18T10:52:35.372Z,0.68
2023-04-18T10:55:39.489Z,0.50
2023-04-18T10:58:42.474Z,1.00
2023-04-18T11:01:49.185Z,0.60
2023-04-18T11:04:59.166Z,0.77
2023-04-18T11:08:00.769Z,0.70
2023-04-18T11:11:06.904Z,1.25
2023-04-18T11:14:08.536Z,0.68
2023-04-18T11:17:26.507Z,0.65
2023-04-18T11:20:29.498Z,0.57
2023-04-18T11:23:31.154Z,0.90
2023-04-18T11:26:33.423Z,0.57
2023-04-18T11:29:35.359Z,0.75
2023-04-18T11:32:37.094Z,0.85
2023-04-18T11:35:38.794Z,0.60
2023-04-18T11:38:42.065Z,0.50
2023-04-18T11:41:50.224Z,0.93
2023-04-18T11:44:51.829Z,0.55
2023-04-18T11:47:59.715Z,0.60
2023-04-18T11:51:01.466Z,0.60
2023-04-18T11:54:03.206Z,0.47
2023-04-18T11:57:06.286Z,0.57
2023-04-18T12:00:12.268Z,0.60
2023-04-18T12:03:18.783Z,0.93
2023-04-18T12:09:24.553Z,0.70
2023-04-18T12:12:26.123Z,0.60
2023-04-18T12:15:28.981Z,0.70
2023-04-18T12:18:31.483Z,0.95
2023-04-18T12:21:33.148Z,1.05
2023-04-18T12:24:36.109Z,0.80
2023-04-18T12:27:58.539Z,1.05
2023-04-18T12:31:00.485Z,0.70
2023-04-18T12:34:02.139Z,0.85
2023-04-18T12:37:05.069Z,1.02
2023-04-18T12:40:07.843Z,1.05
2023-04-18T12:43:09.626Z,0.70
2023-04-18T12:46:11.277Z,0.73
2023-04-18T12:49:12.909Z,0.68
2023-04-18T12:52:16.198Z,0.63
2023-04-18T12:55:17.891Z,0.82
2023-04-18T12:58:20.647Z,0.82
2023-04-18T13:01:22.318Z,1.20
2023-04-18T13:04:24.133Z,1.55
2023-04-18T13:07:25.883Z,1.08
2023-04-18T13:10:27.461Z,1.20
2023-04-18T13:13:29.027Z,1.02
2023-04-18T13:16:31.242Z,1.08
2023-04-18T13:19:32.845Z,1.13
2023-04-18T13:22:34.789Z,1.25
2023-04-18T13:25:36.428Z,1.27
2023-04-18T13:28:38.057Z,1.45
2023-04-18T13:31:39.714Z,1.10
2023-04-18T13:34:46.484Z,0.82
2023-04-18T13:37:48.055Z,1.33
2023-04-18T13:40:55.803Z,0.93
2023-04-18T13:44:06.276Z,0.85
2023-04-18T13:47:08.114Z,0.95
2023-04-18T13:50:10.013Z,1.10
2023-04-18T13:53:11.715Z,1.00
2023-04-18T13:56:13.307Z,0.80
2023-04-18T13:59:15.046Z,0.80
2023-04-18T14:02:16.989Z,1.20
2023-04-18T14:05:18.806Z,0.50
2023-04-18T14:08:21.049Z,0.70
2023-04-18T14:11:23.045Z,0.68
2023-04-18T14:14:24.982Z,0.93
2023-04-18T14:17:26.580Z,0.98
2023-04-18T14:20:34.286Z,0.80
2023-04-18T14:23:35.893Z,0.93
2023-04-18T14:26:37.657Z,1.15
2023-04-18T14:29:39.308Z,1.38
2023-04-18T14:32:41.060Z,1.00
2023-04-18T14:35:43.811Z,0.77
2023-04-18T14:38:49.522Z,1.08
2023-04-18T14:41:51.094Z,1.10
2023-04-18T14:44:52.639Z,1.23
2023-04-18T14:47:55.817Z,0.80
2023-04-18T14:51:02.548Z,0.75
2023-04-18T14:54:04.281Z,1.23
2023-04-18T14:57:08.251Z,0.90
2023-04-18T15:00:11.319Z,1.23
2023-04-18T15:03:13.058Z,1.17
2023-04-18T15:06:14.725Z,0.90
2023-04-18T15:09:16.313Z,1.33
2023-04-18T15:12:18.045Z,1.30
2023-04-18T15:15:19.797Z,1.85
2023-04-18T15:18:21.532Z,1.50
2023-04-18T15:21:23.176Z,1.23
2023-04-18T15:24:24.758Z,1.00
2023-04-18T15:27:26.411Z,1.35
2023-04-18T15:30:28.085Z,1.20
2023-04-18T15:33:29.759Z,1.40
2023-04-18T15:36:31.785Z,1.02
2023-04-18T15:39:33.348Z,1.05
2023-04-18T15:42:35.168Z,1.25
2023-04-18T15:45:36.764Z,1.77
2023-04-18T15:48:38.316Z,0.90
2023-04-18T15:51:40.367Z,1.45
2023-04-18T15:54:44.812Z,1.40
2023-04-18T15:57:46.452Z,1.60
2023-04-18T16:00:50.092Z,0.98
2023-04-18T16:03:51.815Z,1.08
2023-04-18T16:06:53.447Z,1.30
2023-04-18T16:09:55.018Z,1.65
2023-04-18T16:12:56.683Z,1.27
2023-04-18T16:15:58.337Z,1.27
2023-04-18T16:19:00.806Z,0.82
2023-04-18T16:22:02.330Z,0.85
2023-04-18T16:25:05.003Z,1.02
2023-04-18T16:28:06.645Z,0.80
2023-04-18T16:31:08.278Z,0.93
2023-04-18T16:34:09.998Z,0.80
2023-04-18T16:37:11.839Z,0.70
2023-04-18T16:40:15.289Z,1.20
2023-04-18T16:43:16.989Z,1.42
2023-04-18T16:46:19.161Z,1.10
2023-04-18T16:49:20.953Z,0.90
2023-04-18T16:52:23.172Z,1.20
2023-04-18T16:55:24.824Z,0.85
2023-04-18T16:58:26.417Z,0.80
2023-04-18T17:01:28.073Z,0.93
2023-04-18T17:04:29.994Z,0.98
2023-04-18T17:07:31.562Z,1.35
2023-04-18T17:10:33.452Z,0.90
2023-04-18T17:13:36.065Z,1.00
2023-04-18T17:16:39.637Z,0.82
2023-04-18T17:19:41.678Z,1.13
2023-04-18T17:22:43.630Z,1.45
2023-04-18T17:25:45.311Z,1.02
2023-04-18T17:28:46.937Z,1.77
2023-04-18T17:31:48.553Z,1.30
2023-04-18T17:34:50.194Z,1.27
2023-04-18T17:37:52.890Z,0.63
2023-04-18T17:41:02.140Z,1.25
2023-04-18T17:44:04.416Z,1.10
2023-04-18T17:47:06.862Z,1.45
2023-04-18T17:50:08.873Z,1.45
2023-04-18T17:53:12.365Z,1.10
2023-04-18T17:56:13.920Z,1.10
2023-04-18T17:59:15.923Z,1.27
2023-04-18T18:02:17.776Z,1.15
2023-04-18T18:05:19.429Z,1.08
2023-04-18T18:08:21.929Z,1.40
2023-04-18T18:11:23.803Z,1.13
2023-04-18T18:14:26.800Z,1.63
2023-04-18T18:17:28.973Z,1.75
2023-04-18T18:20:30.856Z,2.63
2023-04-18T18:23:32.468Z,2.55
2023-04-18T18:26:37.372Z,2.45
2023-04-18T18:29:38.955Z,3.30
2023-04-18T18:32:40.620Z,3.42
2023-04-18T18:35:42.228Z,4.25
2023-04-18T18:38:43.829Z,9.60
2023-04-18T18:41:45.503Z,8.25
2023-04-18T18:44:47.098Z,7.07
2023-04-18T18:47:48.878Z,6.32
2023-04-18T18:50:51.466Z,5.05
2023-04-18T18:53:53.102Z,5.40
2023-04-18T18:56:54.688Z,6.85
2023-04-18T18:59:56.306Z,6.93
2023-04-18T19:02:57.994Z,8.40
2023-04-18T19:06:03.905Z,7.90
2023-04-18T19:09:05.555Z,9.38
2023-04-18T19:12:07.428Z,13.35
2023-04-18T19:15:09.849Z,15.20
2023-04-18T19:18:12.461Z,15.60
2023-04-18T19:21:14.066Z,14.05
2023-04-18T19:24:16.026Z,10.77
2023-04-18T19:27:17.936Z,11.13
2023-04-18T19:30:19.695Z,9.77
2023-04-18T19:33:24.491Z,11.38
2023-04-18T19:36:26.713Z,10.95
2023-04-18T19:39:28.641Z,8.75
2023-04-18T19:42:30.229Z,6.90
2023-04-18T19:45:31.894Z,7.18
2023-04-18T19:48:33.658Z,7.75
2023-04-18T19:51:35.321Z,7.05
2023-04-18T19:54:36.946Z,5.55
2023-04-18T19:57:39.648Z,5.15
2023-04-18T20:00:41.604Z,4.93
2023-04-18T20:03:43.529Z,5.63
2023-04-18T20:06:45.406Z,5.47
2023-04-18T20:09:46.955Z,5.35
2023-04-18T20:12:50.051Z,5.45
2023-04-18T20:15:53.345Z,3.97
2023-04-18T20:18:56.599Z,4.18
2023-04-18T20:21:58.218Z,3.85
2023-04-18T20:25:00.964Z,4.68
2023-04-18T20:28:03.050Z,4.70
2023-04-18T20:31:04.829Z,3.55
2023-04-18T20:34:06.706Z,4.18
2023-04-18T20:37:09.343Z,4.07
2023-04-18T20:40:11.383Z,5.72
2023-04-18T20:43:17.326Z,5.90
2023-04-18T20:46:19.005Z,4.57
2023-04-18T20:49:20.595Z,6.32
2023-04-18T20:52:22.521Z,5.93
2023-04-18T20:55:24.087Z,5.57
2023-04-18T20:58:25.868Z,4.25
2023-04-18T21:01:27.491Z,4.55
2023-04-18T21:04:29.425Z,4.18
2023-04-18T21:07:32.149Z,3.40
2023-04-18T21:10:34.086Z,2.72
2023-04-18T21:13:35.685Z,2.92
2023-04-18T21:16:39.433Z,2.40
2023-04-18T21:19:41.095Z,2.08
2023-04-18T21:22:42.743Z,1.90
2023-04-18T21:25:44.343Z,2.28
2023-04-18T21:29:00.139Z,2.20
2023-04-18T21:32:01.988Z,1.65
2023-04-18T21:35:03.648Z,1.58
2023-04-18T21:38:05.347Z,2.15
2023-04-18T21:41:07.219Z,2.30
2023-04-18T21:44:08.772Z,1.58
2023-04-18T21:47:10.401Z,1.63
2023-04-18T21:50:11.992Z,1.70
2023-04-18T21:53:13.577Z,1.33
2023-04-18T21:56:17.012Z,2.03
2023-04-18T21:59:18.600Z,1.90
2023-04-18T22:02:20.396Z,1.60
2023-04-18T22:05:21.993Z,1.42
2023-04-18T22:08:25.856Z,1.42
2023-04-18T22:11:28.584Z,1.83
2023-04-18T22:14:32.069Z,1.83
2023-04-18T22:17:34.893Z,2.20
2023-04-18T22:20:37.379Z,1.50
2023-04-18T22:23:39.038Z,1.65
2023-04-18T22:26:41.004Z,1.77
2023-04-18T22:29:42.570Z,1.17
2023-04-18T22:32:44.194Z,2.40
2023-04-18T22:35:47.507Z,1.85
2023-04-18T22:38:49.136Z,1.45
2023-04-18T22:41:50.691Z,1.40
2023-04-18T22:44:52.231Z,1.27
2023-04-18T22:47:53.875Z,1.35
2023-04-18T22:50:55.553Z,1.55
2023-04-18T22:53:57.131Z,1.35
2023-04-18T22:56:58.717Z,1.23
2023-04-18T23:00:00.294Z,1.25
2023-04-18T23:03:02.553Z,1.63
2023-04-18T23:06:07.397Z,2.15
2023-04-18T23:09:09.775Z,2.17
2023-04-18T23:12:12.620Z,2.25
2023-04-18T23:15:14.223Z,2.38
2023-04-18T23:18:15.842Z,2.60
2023-04-18T23:21:17.964Z,2.10
2023-04-18T23:24:19.519Z,2.65
2023-04-18T23:27:21.130Z,2.45
2023-04-18T23:30:22.713Z,2.45
2023-04-18T23:33:24.310Z,3.47
2023-04-18T23:36:27.374Z,3.55
2023-04-18T23:39:29.038Z,3.78
2023-04-18T23:42:30.626Z,3.08
2023-04-18T23:45:32.218Z,3.58
2023-04-18T23:48:33.795Z,3.90
2023-04-18T23:51:35.419Z,3.30
2023-04-18T23:54:36.986Z,3.90
2023-04-18T23:57:38.543Z,3.55
